sensor_id;sensor_type;location;lat;lon;timestamp;pressure;altitude;pressure_sealevel;temperature;humidity
52032;BME280;38044;45.148;39.604;2023-02-10T00:01:10;103072.53;;;-14.15;73.10
52032;BME280;38044;45.148;39.604;2023-02-10T00:03:37;103090.16;;;-14.04;73.19
52032;BME280;38044;45.148;39.604;2023-02-10T00:06:03;103088.41;;;-14.03;73.16
52032;BME280;38044;45.148;39.604;2023-02-10T00:08:30;103075.13;;;-14.15;72.91
52032;BME280;38044;45.148;39.604;2023-02-10T00:11:00;103091.47;;;-14.14;73.07
52032;BME280;38044;45.148;39.604;2023-02-10T00:13:27;103089.72;;;-14.14;73.16
52032;BME280;38044;45.148;39.604;2023-02-10T00:15:53;103087.38;;;-14.18;73.26
52032;BME280;38044;45.148;39.604;2023-02-10T00:18:19;103093.50;;;-14.21;73.05
52032;BME280;38044;45.148;39.604;2023-02-10T00:20:45;103052.50;;;-14.49;72.96
52032;BME280;38044;45.148;39.604;2023-02-10T00:23:11;103073.50;;;-14.36;72.89
52032;BME280;38044;45.148;39.604;2023-02-10T00:25:37;103108.31;;;-14.24;72.79
52032;BME280;38044;45.148;39.604;2023-02-10T00:28:03;103072.13;;;-14.45;72.71
52032;BME280;38044;45.148;39.604;2023-02-10T00:30:30;102948.16;;;-15.24;72.78
52032;BME280;38044;45.148;39.604;2023-02-10T00:32:56;103088.69;;;-14.49;72.77
52032;BME280;38044;45.148;39.604;2023-02-10T00:35:23;103009.22;;;-14.82;72.83
52032;BME280;38044;45.148;39.604;2023-02-10T00:37:49;103097.72;;;-14.39;72.87
52032;BME280;38044;45.148;39.604;2023-02-10T00:40:15;103104.81;;;-14.23;73.04
52032;BME280;38044;45.148;39.604;2023-02-10T00:42:41;102915.66;;;-15.28;72.81
52032;BME280;38044;45.148;39.604;2023-02-10T00:45:09;103079.38;;;-14.14;73.02
52032;BME280;38044;45.148;39.604;2023-02-10T00:47:35;103022.94;;;-14.42;72.83
52032;BME280;38044;45.148;39.604;2023-02-10T00:50:01;102893.44;;;-15.11;72.50
52032;BME280;38044;45.148;39.604;2023-02-10T00:52:27;103069.75;;;-13.91;72.42
52032;BME280;38044;45.148;39.604;2023-02-10T00:54:53;103058.88;;;-13.98;72.21
52032;BME280;38044;45.148;39.604;2023-02-10T00:57:20;102998.84;;;-14.23;72.32
52032;BME280;38044;45.148;39.604;2023-02-10T00:59:46;103066.53;;;-13.77;72.44
52032;BME280;38044;45.148;39.604;2023-02-10T01:02:13;102875.91;;;-14.84;72.15
52032;BME280;38044;45.148;39.604;2023-02-10T01:04:39;103051.03;;;-13.77;71.98
52032;BME280;38044;45.148;39.604;2023-02-10T01:07:04;103020.56;;;-13.90;71.83
52032;BME280;38044;45.148;39.604;2023-02-10T01:09:30;103033.28;;;-13.85;72.03
52032;BME280;38044;45.148;39.604;2023-02-10T01:11:56;103034.00;;;-13.81;71.83
52032;BME280;38044;45.148;39.604;2023-02-10T01:14:23;103049.56;;;-13.64;71.78
52032;BME280;38044;45.148;39.604;2023-02-10T01:16:49;102883.50;;;-14.62;71.58
52032;BME280;38044;45.148;39.604;2023-02-10T01:19:15;103043.75;;;-13.69;71.79
52032;BME280;38044;45.148;39.604;2023-02-10T01:21:40;103043.25;;;-13.58;71.77
52032;BME280;38044;45.148;39.604;2023-02-10T01:24:06;103019.69;;;-13.71;71.57
52032;BME280;38044;45.148;39.604;2023-02-10T01:26:33;103045.59;;;-13.54;71.82
52032;BME280;38044;45.148;39.604;2023-02-10T01:28:58;102818.16;;;-14.82;71.75
52032;BME280;38044;45.148;39.604;2023-02-10T01:31:25;102976.03;;;-13.77;72.03
52032;BME280;38044;45.148;39.604;2023-02-10T01:33:52;102992.03;;;-13.69;72.01
52032;BME280;38044;45.148;39.604;2023-02-10T01:36:21;102991.72;;;-13.63;71.82
52032;BME280;38044;45.148;39.604;2023-02-10T01:38:48;102972.59;;;-13.78;72.05
52032;BME280;38044;45.148;39.604;2023-02-10T01:41:16;102999.03;;;-13.54;71.86
52032;BME280;38044;45.148;39.604;2023-02-10T01:44:03;103028.50;;;-13.39;71.86
52032;BME280;38044;45.148;39.604;2023-02-10T01:46:31;103029.63;;;-13.45;71.83
52032;BME280;38044;45.148;39.604;2023-02-10T01:49:01;102852.78;;;-14.49;71.77
52032;BME280;38044;45.148;39.604;2023-02-10T01:51:37;103015.19;;;-13.49;71.66
52032;BME280;38044;45.148;39.604;2023-02-10T01:54:05;102993.38;;;-13.62;71.81
52032;BME280;38044;45.148;39.604;2023-02-10T01:56:35;102849.13;;;-14.45;71.61
52032;BME280;38044;45.148;39.604;2023-02-10T01:59:00;103020.00;;;-13.41;71.58
52032;BME280;38044;45.148;39.604;2023-02-10T02:01:26;102835.47;;;-14.47;71.19
52032;BME280;38044;45.148;39.604;2023-02-10T02:03:53;103012.44;;;-13.46;71.34
52032;BME280;38044;45.148;39.604;2023-02-10T02:06:19;102829.00;;;-14.56;71.00
52032;BME280;38044;45.148;39.604;2023-02-10T02:08:45;102824.09;;;-14.62;71.04
52032;BME280;38044;45.148;39.604;2023-02-10T02:16:30;103017.53;;;-13.62;71.34
52032;BME280;38044;45.148;39.604;2023-02-10T02:25:07;102992.91;;;-14.07;71.59
52032;BME280;38044;45.148;39.604;2023-02-10T02:27:52;102969.16;;;-14.34;71.51
52032;BME280;38044;45.148;39.604;2023-02-10T02:33:17;102968.75;;;-14.43;71.64
52032;BME280;38044;45.148;39.604;2023-02-10T02:36:03;102980.53;;;-14.38;71.83
52032;BME280;38044;45.148;39.604;2023-02-10T02:38:42;103016.94;;;-14.23;71.64
52032;BME280;38044;45.148;39.604;2023-02-10T02:41:09;102955.97;;;-14.65;71.75
52032;BME280;38044;45.148;39.604;2023-02-10T02:43:36;103013.84;;;-14.32;71.79
52032;BME280;38044;45.148;39.604;2023-02-10T02:46:12;102979.06;;;-14.62;72.07
52032;BME280;38044;45.148;39.604;2023-02-10T02:51:42;103015.06;;;-14.39;71.93
52032;BME280;38044;45.148;39.604;2023-02-10T02:54:46;103007.44;;;-14.42;71.91
52032;BME280;38044;45.148;39.604;2023-02-10T03:00:30;102987.59;;;-14.60;72.04
52032;BME280;38044;45.148;39.604;2023-02-10T03:02:58;102985.28;;;-14.66;71.98
52032;BME280;38044;45.148;39.604;2023-02-10T03:05:29;102871.91;;;-15.31;71.93
52032;BME280;38044;45.148;39.604;2023-02-10T03:07:56;102941.06;;;-14.98;72.05
52032;BME280;38044;45.148;39.604;2023-02-10T03:10:21;102996.03;;;-14.57;72.09
52032;BME280;38044;45.148;39.604;2023-02-10T03:12:47;102925.19;;;-15.09;72.11
52032;BME280;38044;45.148;39.604;2023-02-10T03:15:13;103004.91;;;-14.62;72.16
52032;BME280;38044;45.148;39.604;2023-02-10T03:17:40;102925.00;;;-15.05;72.05
52032;BME280;38044;45.148;39.604;2023-02-10T03:20:07;102961.03;;;-14.83;72.29
52032;BME280;38044;45.148;39.604;2023-02-10T03:22:33;102909.72;;;-15.09;72.25
52032;BME280;38044;45.148;39.604;2023-02-10T03:24:58;102974.44;;;-14.74;72.16
52032;BME280;38044;45.148;39.604;2023-02-10T03:27:24;102947.25;;;-14.82;72.29
52032;BME280;38044;45.148;39.604;2023-02-10T03:29:50;102834.81;;;-15.47;72.09
52032;BME280;38044;45.148;39.604;2023-02-10T03:32:18;102782.91;;;-15.79;71.89
52032;BME280;38044;45.148;39.604;2023-02-10T03:34:44;103006.47;;;-14.58;72.22
52032;BME280;38044;45.148;39.604;2023-02-10T03:37:11;103010.41;;;-14.51;72.52
52032;BME280;38044;45.148;39.604;2023-02-10T03:39:37;102990.13;;;-14.59;72.28
52032;BME280;38044;45.148;39.604;2023-02-10T03:42:03;103014.53;;;-14.47;72.11
52032;BME280;38044;45.148;39.604;2023-02-10T03:44:30;103011.34;;;-14.52;72.08
52032;BME280;38044;45.148;39.604;2023-02-10T03:46:56;102957.56;;;-14.82;71.90
52032;BME280;38044;45.148;39.604;2023-02-10T03:49:22;103000.50;;;-14.60;72.18
52032;BME280;38044;45.148;39.604;2023-02-10T03:51:48;102989.47;;;-14.64;72.14
52032;BME280;38044;45.148;39.604;2023-02-10T03:54:14;102773.63;;;-16.03;72.05
52032;BME280;38044;45.148;39.604;2023-02-10T03:56:40;102987.69;;;-14.82;72.29
52032;BME280;38044;45.148;39.604;2023-02-10T03:59:06;102984.22;;;-14.81;72.20
52032;BME280;38044;45.148;39.604;2023-02-10T04:01:33;102999.97;;;-14.87;72.17
52032;BME280;38044;45.148;39.604;2023-02-10T04:04:00;102987.94;;;-14.88;72.24
52032;BME280;38044;45.148;39.604;2023-02-10T04:06:26;102968.81;;;-15.03;72.17
52032;BME280;38044;45.148;39.604;2023-02-10T04:08:52;102850.94;;;-15.83;71.98
52032;BME280;38044;45.148;39.604;2023-02-10T04:11:18;102821.66;;;-16.02;72.02
52032;BME280;38044;45.148;39.604;2023-02-10T04:13:44;102949.44;;;-15.34;72.10
52032;BME280;38044;45.148;39.604;2023-02-10T04:16:14;102963.69;;;-15.25;71.91
52032;BME280;38044;45.148;39.604;2023-02-10T04:18:41;102985.59;;;-15.13;71.90
52032;BME280;38044;45.148;39.604;2023-02-10T04:21:09;102908.59;;;-15.65;71.96
52032;BME280;38044;45.148;39.604;2023-02-10T04:23:35;102945.72;;;-15.47;72.05
52032;BME280;38044;45.148;39.604;2023-02-10T04:26:02;102985.06;;;-15.22;72.05
52032;BME280;38044;45.148;39.604;2023-02-10T04:28:28;102940.03;;;-15.55;71.99
52032;BME280;38044;45.148;39.604;2023-02-10T04:30:55;102972.16;;;-15.42;71.95
52032;BME280;38044;45.148;39.604;2023-02-10T04:33:22;102992.28;;;-15.30;72.14
52032;BME280;38044;45.148;39.604;2023-02-10T04:35:51;102997.97;;;-15.22;71.98
52032;BME280;38044;45.148;39.604;2023-02-10T04:38:17;102996.28;;;-15.23;72.11
52032;BME280;38044;45.148;39.604;2023-02-10T04:40:43;103017.31;;;-15.11;72.03
52032;BME280;38044;45.148;39.604;2023-02-10T04:43:10;102956.09;;;-15.28;71.99
52032;BME280;38044;45.148;39.604;2023-02-10T04:45:36;103001.69;;;-14.88;71.77
52032;BME280;38044;45.148;39.604;2023-02-10T04:48:03;102974.19;;;-14.68;71.62
52032;BME280;38044;45.148;39.604;2023-02-10T04:50:28;102989.63;;;-14.10;71.18
52032;BME280;38044;45.148;39.604;2023-02-10T04:52:54;102836.28;;;-14.64;70.45
52032;BME280;38044;45.148;39.604;2023-02-10T04:55:20;103002.25;;;-13.31;69.70
52032;BME280;38044;45.148;39.604;2023-02-10T04:57:46;103004.13;;;-13.00;69.09
52032;BME280;38044;45.148;39.604;2023-02-10T05:00:12;103001.75;;;-12.70;68.08
52032;BME280;38044;45.148;39.604;2023-02-10T05:02:38;102877.34;;;-13.19;67.38
52032;BME280;38044;45.148;39.604;2023-02-10T05:05:04;102981.28;;;-12.10;66.88
52032;BME280;38044;45.148;39.604;2023-02-10T05:07:30;102868.53;;;-12.34;66.17
52032;BME280;38044;45.148;39.604;2023-02-10T05:09:56;103020.56;;;-11.24;65.50
52032;BME280;38044;45.148;39.604;2023-02-10T05:12:22;103018.59;;;-10.90;65.30
52032;BME280;38044;45.148;39.604;2023-02-10T05:14:48;103031.09;;;-10.38;64.20
52032;BME280;38044;45.148;39.604;2023-02-10T05:17:16;103023.59;;;-9.87;63.46
52032;BME280;38044;45.148;39.604;2023-02-10T05:19:42;102988.44;;;-9.40;61.91
52032;BME280;38044;45.148;39.604;2023-02-10T05:22:08;103006.66;;;-8.62;60.76
52032;BME280;38044;45.148;39.604;2023-02-10T05:24:34;102999.47;;;-8.08;59.69
52032;BME280;38044;45.148;39.604;2023-02-10T05:26:59;103004.50;;;-7.57;57.94
52032;BME280;38044;45.148;39.604;2023-02-10T05:29:25;103038.03;;;-7.16;56.42
52032;BME280;38044;45.148;39.604;2023-02-10T05:31:51;103052.13;;;-6.48;56.27
52032;BME280;38044;45.148;39.604;2023-02-10T05:34:17;102927.78;;;-6.31;55.57
52032;BME280;38044;45.148;39.604;2023-02-10T05:36:42;103053.16;;;-5.07;53.90
52032;BME280;38044;45.148;39.604;2023-02-10T05:39:10;103007.94;;;-4.48;51.81
52032;BME280;38044;45.148;39.604;2023-02-10T05:41:49;103039.25;;;-3.85;51.76
52032;BME280;38044;45.148;39.604;2023-02-10T05:44:15;102955.31;;;-4.37;51.27
52032;BME280;38044;45.148;39.604;2023-02-10T05:46:41;102928.56;;;-4.11;50.97
52032;BME280;38044;45.148;39.604;2023-02-10T05:49:06;103019.38;;;-3.10;49.71
52032;BME280;38044;45.148;39.604;2023-02-10T05:51:32;103044.38;;;-2.67;48.30
52032;BME280;38044;45.148;39.604;2023-02-10T05:53:58;103058.25;;;-2.65;48.03
52032;BME280;38044;45.148;39.604;2023-02-10T05:56:24;102939.25;;;-3.64;47.22
52032;BME280;38044;45.148;39.604;2023-02-10T05:58:50;103035.41;;;-2.74;46.56
52032;BME280;38044;45.148;39.604;2023-02-10T06:01:16;102875.06;;;-3.52;46.86
52032;BME280;38044;45.148;39.604;2023-02-10T06:03:42;103041.22;;;-3.77;48.02
52032;BME280;38044;45.148;39.604;2023-02-10T06:06:07;102874.16;;;-6.04;49.46
52032;BME280;38044;45.148;39.604;2023-02-10T06:08:33;103040.84;;;-6.26;50.41
52032;BME280;38044;45.148;39.604;2023-02-10T06:10:59;103038.47;;;-7.33;51.70
52032;BME280;38044;45.148;39.604;2023-02-10T06:13:25;103040.63;;;-8.12;52.47
52032;BME280;38044;45.148;39.604;2023-02-10T06:15:50;103023.34;;;-8.64;54.15
52032;BME280;38044;45.148;39.604;2023-02-10T06:18:16;103040.47;;;-8.60;54.56
52032;BME280;38044;45.148;39.604;2023-02-10T06:20:45;102887.16;;;-9.57;54.28
52032;BME280;38044;45.148;39.604;2023-02-10T06:23:12;103039.19;;;-8.93;55.02
52032;BME280;38044;45.148;39.604;2023-02-10T06:25:38;102979.94;;;-9.56;55.04
52032;BME280;38044;45.148;39.604;2023-02-10T06:28:04;103026.56;;;-9.39;55.25
52032;BME280;38044;45.148;39.604;2023-02-10T06:30:29;102976.00;;;-9.89;55.41
52032;BME280;38044;45.148;39.604;2023-02-10T06:32:55;103048.66;;;-9.86;56.58
52032;BME280;38044;45.148;39.604;2023-02-10T06:35:21;103059.75;;;-9.97;57.26
52032;BME280;38044;45.148;39.604;2023-02-10T06:37:47;103015.06;;;-10.03;57.70
52032;BME280;38044;45.148;39.604;2023-02-10T06:40:13;103051.88;;;-9.68;57.04
52032;BME280;38044;45.148;39.604;2023-02-10T06:42:39;103009.03;;;-10.04;57.32
52032;BME280;38044;45.148;39.604;2023-02-10T06:45:05;103016.72;;;-10.02;58.02
52032;BME280;38044;45.148;39.604;2023-02-10T06:47:34;103045.47;;;-9.77;57.86
52032;BME280;38044;45.148;39.604;2023-02-10T06:50:00;103049.81;;;-9.63;58.00
52032;BME280;38044;45.148;39.604;2023-02-10T06:52:26;103014.50;;;-9.67;57.58
52032;BME280;38044;45.148;39.604;2023-02-10T06:54:52;103034.22;;;-9.50;57.92
52032;BME280;38044;45.148;39.604;2023-02-10T06:57:18;103032.56;;;-9.51;57.82
52032;BME280;38044;45.148;39.604;2023-02-10T06:59:45;102998.34;;;-9.72;58.10
52032;BME280;38044;45.148;39.604;2023-02-10T07:02:12;103016.47;;;-9.43;58.12
52032;BME280;38044;45.148;39.604;2023-02-10T07:04:38;103009.25;;;-9.53;57.89
52032;BME280;38044;45.148;39.604;2023-02-10T07:07:05;103046.03;;;-9.17;58.13
52032;BME280;38044;45.148;39.604;2023-02-10T07:09:31;103043.97;;;-8.99;58.18
52032;BME280;38044;45.148;39.604;2023-02-10T07:11:59;103038.06;;;-8.89;57.66
52032;BME280;38044;45.148;39.604;2023-02-10T07:14:25;103034.78;;;-9.05;58.09
52032;BME280;38044;45.148;39.604;2023-02-10T07:16:51;103027.50;;;-9.00;57.98
52032;BME280;38044;45.148;39.604;2023-02-10T07:19:17;103043.81;;;-8.83;57.60
52032;BME280;38044;45.148;39.604;2023-02-10T07:21:42;102979.09;;;-9.30;57.64
52032;BME280;38044;45.148;39.604;2023-02-10T07:24:09;103041.69;;;-8.91;57.77
52032;BME280;38044;45.148;39.604;2023-02-10T07:26:35;102921.63;;;-9.66;57.86
52032;BME280;38044;45.148;39.604;2023-02-10T07:29:00;102872.56;;;-10.00;58.05
52032;BME280;38044;45.148;39.604;2023-02-10T07:31:26;102985.97;;;-9.28;57.39
52032;BME280;38044;45.148;39.604;2023-02-10T07:33:52;103036.16;;;-9.12;57.92
52032;BME280;38044;45.148;39.604;2023-02-10T07:36:18;103029.16;;;-9.12;58.03
52032;BME280;38044;45.148;39.604;2023-02-10T07:38:43;102971.19;;;-9.15;58.02
52032;BME280;38044;45.148;39.604;2023-02-10T07:41:09;103021.47;;;-8.62;57.47
52032;BME280;38044;45.148;39.604;2023-02-10T07:43:35;103024.34;;;-8.28;56.78
52032;BME280;38044;45.148;39.604;2023-02-10T07:46:01;103022.88;;;-8.20;56.46
52032;BME280;38044;45.148;39.604;2023-02-10T07:48:27;102853.97;;;-8.78;56.23
52032;BME280;38044;45.148;39.604;2023-02-10T07:50:53;103048.22;;;-7.24;55.32
52032;BME280;38044;45.148;39.604;2023-02-10T07:53:20;102979.84;;;-7.18;54.33
52032;BME280;38044;45.148;39.604;2023-02-10T07:55:46;103017.75;;;-6.54;54.05
52032;BME280;38044;45.148;39.604;2023-02-10T07:58:12;103023.69;;;-6.07;53.53
52032;BME280;38044;45.148;39.604;2023-02-10T08:00:39;102980.72;;;-5.73;52.82
52032;BME280;38044;45.148;39.604;2023-02-10T08:03:05;102863.09;;;-5.87;51.90
52032;BME280;38044;45.148;39.604;2023-02-10T08:05:30;102910.34;;;-4.93;50.21
52032;BME280;38044;45.148;39.604;2023-02-10T08:07:56;103037.34;;;-3.64;49.57
52032;BME280;38044;45.148;39.604;2023-02-10T08:10:22;102991.38;;;-2.91;48.77
52032;BME280;38044;45.148;39.604;2023-02-10T08:12:48;103006.41;;;-2.27;47.86
52032;BME280;38044;45.148;39.604;2023-02-10T08:15:14;103014.34;;;-1.64;46.54
52032;BME280;38044;45.148;39.604;2023-02-10T08:17:44;103008.56;;;-1.49;46.06
52032;BME280;38044;45.148;39.604;2023-02-10T08:20:10;102987.06;;;-1.90;46.06
52032;BME280;38044;45.148;39.604;2023-02-10T08:22:37;103040.88;;;-2.11;46.65
52032;BME280;38044;45.148;39.604;2023-02-10T08:25:02;103046.78;;;-2.36;47.17
52032;BME280;38044;45.148;39.604;2023-02-10T08:27:29;103047.00;;;-2.67;47.06
52032;BME280;38044;45.148;39.604;2023-02-10T08:29:55;103021.44;;;-3.04;47.33
52032;BME280;38044;45.148;39.604;2023-02-10T08:32:21;103046.94;;;-2.95;47.78
52032;BME280;38044;45.148;39.604;2023-02-10T08:34:51;102928.88;;;-3.66;47.90
52032;BME280;38044;45.148;39.604;2023-02-10T08:37:17;103046.00;;;-3.03;47.91
52032;BME280;38044;45.148;39.604;2023-02-10T08:39:43;103051.38;;;-3.14;48.84
52032;BME280;38044;45.148;39.604;2023-02-10T08:42:10;103037.38;;;-3.25;48.67
52032;BME280;38044;45.148;39.604;2023-02-10T08:44:36;103026.84;;;-3.15;48.57
52032;BME280;38044;45.148;39.604;2023-02-10T08:47:03;102900.22;;;-3.98;48.90
52032;BME280;38044;45.148;39.604;2023-02-10T08:49:29;102914.75;;;-3.94;48.46
52032;BME280;38044;45.148;39.604;2023-02-10T08:51:55;103007.91;;;-3.48;48.92
52032;BME280;38044;45.148;39.604;2023-02-10T08:54:21;102857.19;;;-4.36;49.32
52032;BME280;38044;45.148;39.604;2023-02-10T08:56:49;102882.38;;;-4.23;48.46
52032;BME280;38044;45.148;39.604;2023-02-10T08:59:18;102906.72;;;-4.02;49.19
52032;BME280;38044;45.148;39.604;2023-02-10T09:01:44;103003.34;;;-3.36;48.32
52032;BME280;38044;45.148;39.604;2023-02-10T09:04:10;102990.88;;;-3.34;48.58
52032;BME280;38044;45.148;39.604;2023-02-10T09:06:37;103019.09;;;-3.07;49.05
52032;BME280;38044;45.148;39.604;2023-02-10T09:09:15;103004.25;;;-2.88;48.48
52032;BME280;38044;45.148;39.604;2023-02-10T09:11:42;102863.00;;;-3.64;48.01
52032;BME280;38044;45.148;39.604;2023-02-10T09:14:08;102895.09;;;-3.31;48.17
52032;BME280;38044;45.148;39.604;2023-02-10T09:16:35;102821.19;;;-3.48;47.72
52032;BME280;38044;45.148;39.604;2023-02-10T09:19:01;102963.50;;;-2.19;47.43
52032;BME280;38044;45.148;39.604;2023-02-10T09:21:27;102859.22;;;-2.40;46.71
52032;BME280;38044;45.148;39.604;2023-02-10T09:23:53;103007.47;;;-1.03;45.91
52032;BME280;38044;45.148;39.604;2023-02-10T09:26:19;103006.97;;;-0.46;45.31
52032;BME280;38044;45.148;39.604;2023-02-10T09:28:45;102986.09;;;0.77;44.29
52032;BME280;38044;45.148;39.604;2023-02-10T09:31:12;102995.28;;;1.46;42.96
52032;BME280;38044;45.148;39.604;2023-02-10T09:33:38;102992.78;;;2.46;42.73
52032;BME280;38044;45.148;39.604;2023-02-10T09:36:06;102965.22;;;2.24;41.35
52032;BME280;38044;45.148;39.604;2023-02-10T09:38:32;102966.97;;;2.55;41.80
52032;BME280;38044;45.148;39.604;2023-02-10T09:41:21;102953.81;;;2.16;42.16
52032;BME280;38044;45.148;39.604;2023-02-10T09:54:50;102783.81;;;3.43;39.20
52032;BME280;38044;45.148;39.604;2023-02-10T09:57:20;102912.31;;;4.44;38.55
52032;BME280;38044;45.148;39.604;2023-02-10T09:59:50;102941.22;;;3.68;39.20
52032;BME280;38044;45.148;39.604;2023-02-10T10:02:29;102978.06;;;2.36;41.57
52032;BME280;38044;45.148;39.604;2023-02-10T10:04:58;102973.19;;;0.65;43.96
52032;BME280;38044;45.148;39.604;2023-02-10T10:07:29;102767.94;;;-1.27;44.82
52032;BME280;38044;45.148;39.604;2023-02-10T10:10:10;102982.28;;;-0.29;44.99
52032;BME280;38044;45.148;39.604;2023-02-10T10:12:38;102929.91;;;-0.76;45.21
52032;BME280;38044;45.148;39.604;2023-02-10T10:15:14;102951.06;;;-0.68;45.27
52032;BME280;38044;45.148;39.604;2023-02-10T10:18:05;102808.16;;;-1.59;44.53
52032;BME280;38044;45.148;39.604;2023-02-10T10:20:54;102899.75;;;-0.99;45.07
52032;BME280;38044;45.148;39.604;2023-02-10T10:29:06;102902.53;;;-0.66;44.50
52032;BME280;38044;45.148;39.604;2023-02-10T10:31:37;102937.19;;;-0.27;44.21
52032;BME280;38044;45.148;39.604;2023-02-10T10:34:09;102967.09;;;-0.27;44.17
52032;BME280;38044;45.148;39.604;2023-02-10T10:36:40;102947.84;;;-0.53;44.92
52032;BME280;38044;45.148;39.604;2023-02-10T10:42:25;102942.13;;;-1.01;44.94
52032;BME280;38044;45.148;39.604;2023-02-10T10:44:59;102862.97;;;-1.71;45.45
52032;BME280;38044;45.148;39.604;2023-02-10T10:47:36;102929.97;;;-0.94;45.29
52032;BME280;38044;45.148;39.604;2023-02-10T10:50:03;102943.38;;;-0.87;45.19
52032;BME280;38044;45.148;39.604;2023-02-10T10:52:32;102871.94;;;-1.38;45.63
52032;BME280;38044;45.148;39.604;2023-02-10T10:55:03;102937.72;;;-0.92;46.23
52032;BME280;38044;45.148;39.604;2023-02-10T10:57:30;102885.22;;;-0.95;46.35
52032;BME280;38044;45.148;39.604;2023-02-10T11:00:17;102859.47;;;-0.59;45.69
52032;BME280;38044;45.148;39.604;2023-02-10T11:02:54;102761.66;;;-0.92;45.20
52032;BME280;38044;45.148;39.604;2023-02-10T11:05:21;102924.19;;;-0.04;45.32
52032;BME280;38044;45.148;39.604;2023-02-10T11:07:48;102735.41;;;-0.85;45.22
52032;BME280;38044;45.148;39.604;2023-02-10T11:12:50;102883.09;;;1.77;42.75
52032;BME280;38044;45.148;39.604;2023-02-10T11:17:52;102884.31;;;2.20;41.82
52032;BME280;38044;45.148;39.604;2023-02-10T11:20:30;102903.00;;;2.65;41.83
52032;BME280;38044;45.148;39.604;2023-02-10T11:23:13;102922.56;;;2.49;42.01
52032;BME280;38044;45.148;39.604;2023-02-10T11:25:40;102885.91;;;1.52;42.09
52032;BME280;38044;45.148;39.604;2023-02-10T11:28:16;102862.13;;;0.88;43.21
52032;BME280;38044;45.148;39.604;2023-02-10T11:30:42;102809.69;;;0.04;44.41
52032;BME280;38044;45.148;39.604;2023-02-10T11:33:20;102918.28;;;0.67;45.17
52032;BME280;38044;45.148;39.604;2023-02-10T11:36:06;102723.59;;;-0.56;44.93
52032;BME280;38044;45.148;39.604;2023-02-10T11:38:34;102689.47;;;-1.17;45.90
52032;BME280;38044;45.148;39.604;2023-02-10T11:41:02;102858.06;;;-0.37;46.45
52032;BME280;38044;45.148;39.604;2023-02-10T11:43:31;102769.22;;;-1.39;47.13
52032;BME280;38044;45.148;39.604;2023-02-10T11:46:01;102900.09;;;-0.94;48.22
52032;BME280;38044;45.148;39.604;2023-02-10T11:48:28;102887.13;;;-1.14;48.90
52032;BME280;38044;45.148;39.604;2023-02-10T11:51:11;102829.13;;;-0.97;49.11
52032;BME280;38044;45.148;39.604;2023-02-10T11:53:39;102895.28;;;-0.64;48.55
52032;BME280;38044;45.148;39.604;2023-02-10T11:59:39;102902.91;;;-0.53;48.15
52032;BME280;38044;45.148;39.604;2023-02-10T12:05:13;102903.81;;;-1.57;50.26
52032;BME280;38044;45.148;39.604;2023-02-10T12:07:58;102899.16;;;-1.99;51.35
52032;BME280;38044;45.148;39.604;2023-02-10T12:10:41;102856.91;;;-2.25;51.94
52032;BME280;38044;45.148;39.604;2023-02-10T12:13:23;102910.81;;;-2.01;51.99
52032;BME280;38044;45.148;39.604;2023-02-10T12:16:15;102714.34;;;-2.93;51.83
52032;BME280;38044;45.148;39.604;2023-02-10T12:19:02;102886.25;;;-1.66;51.49
52032;BME280;38044;45.148;39.604;2023-02-10T12:22:03;102899.47;;;-0.88;50.22
52032;BME280;38044;45.148;39.604;2023-02-10T12:30:24;102908.88;;;-1.38;50.88
52032;BME280;38044;45.148;39.604;2023-02-10T12:33:02;102827.31;;;-2.37;51.29
52032;BME280;38044;45.148;39.604;2023-02-10T12:35:47;102896.94;;;-2.39;52.13
52032;BME280;38044;45.148;39.604;2023-02-10T12:41:55;102898.38;;;-2.82;53.57
52032;BME280;38044;45.148;39.604;2023-02-10T12:44:01;102873.00;;;-2.83;53.95
52032;BME280;38044;45.148;39.604;2023-02-10T12:46:58;102829.44;;;-2.96;53.74
52032;BME280;38044;45.148;39.604;2023-02-10T12:52:21;102849.03;;;-3.08;54.41
52032;BME280;38044;45.148;39.604;2023-02-10T12:55:03;102900.66;;;-2.97;54.35
52032;BME280;38044;45.148;39.604;2023-02-10T13:00:31;102723.28;;;-4.36;55.39
52032;BME280;38044;45.148;39.604;2023-02-10T13:03:04;102913.66;;;-3.62;55.73
52032;BME280;38044;45.148;39.604;2023-02-10T13:08:53;102880.47;;;-3.82;56.93
52032;BME280;38044;45.148;39.604;2023-02-10T13:11:34;102874.38;;;-3.73;57.09
52032;BME280;38044;45.148;39.604;2023-02-10T13:14:11;102841.19;;;-3.94;56.54
52032;BME280;38044;45.148;39.604;2023-02-10T13:16:39;102763.06;;;-4.50;56.75
52032;BME280;38044;45.148;39.604;2023-02-10T13:19:20;102870.75;;;-3.72;57.37
52032;BME280;38044;45.148;39.604;2023-02-10T13:22:45;102784.50;;;-4.25;57.38
52032;BME280;38044;45.148;39.604;2023-02-10T13:25:11;102915.28;;;-3.42;57.07
52032;BME280;38044;45.148;39.604;2023-02-10T13:33:32;102907.03;;;-3.66;57.69
52032;BME280;38044;45.148;39.604;2023-02-10T13:36:02;102904.13;;;-3.82;57.67
52032;BME280;38044;45.148;39.604;2023-02-10T13:38:31;102857.78;;;-4.22;58.06
52032;BME280;38044;45.148;39.604;2023-02-10T13:40:59;102766.63;;;-4.70;57.60
52032;BME280;38044;45.148;39.604;2023-02-10T13:43:55;102908.25;;;-3.90;58.25
52032;BME280;38044;45.148;39.604;2023-02-10T13:46:31;102919.06;;;-3.83;58.28
52032;BME280;38044;45.148;39.604;2023-02-10T13:48:59;102909.09;;;-3.99;58.58
52032;BME280;38044;45.148;39.604;2023-02-10T13:51:35;102896.22;;;-3.92;58.76
52032;BME280;38044;45.148;39.604;2023-02-10T13:54:02;102889.31;;;-4.03;58.16
52032;BME280;38044;45.148;39.604;2023-02-10T13:56:31;102868.56;;;-4.25;58.48
52032;BME280;38044;45.148;39.604;2023-02-10T14:01:45;102885.97;;;-4.24;58.59
52032;BME280;38044;45.148;39.604;2023-02-10T14:06:48;102878.16;;;-4.55;59.58